Startpagina
METAR-TAF:

METAR-TAF

Vliegvelden :

Münster-Osnabrück, Duitsland

Flughafen Münster-Osnabrück

breedte: 52-08N, lengte: 007-42E, hoogte: 48 m

Actueel weer

Dit bericht is 21 minuten geleden gemaakt, om 02:50 UTC
Wind 7 kt uit het westzuidwesten
Temperatuur 19°C
Vochtigheid 88%
Druk 1013 hPa
Zicht: 7000 m
Gebroken wolken op 900 ft

METAR: EDDG 240250Z 25007KT 7000 BKN009 19/17 Q1013 NOSIG

Tijdstip: 05:11 (03:11 UTC)

Verwachting

Dit bericht is 56 minuten geleden gemaakt, om 02:15 UTC
Verwachting geldig van 24 om 02 UTC tot 24 om 24 UTC
Wind 6 kt uit het westzuidwesten
Zicht 10 km of meer
Verspreide wolken op 3000 ft
Tijdelijke
van 24 om 02 UTC tot 24 om 05 UTC
Wind 12 kt uit het zuidwesten
Gebroken wolken op 800 ft
Tijdelijke
van 24 om 08 UTC tot 24 om 15 UTC
Wind 15 kt uit het westen
Wijzigt naar
van 24 om 15 UTC tot 24 om 18 UTC
Wind 3 kt uit variabele richting

TAF: EDDG 240215Z 2402/2424 24006KT 9999 SCT030 TEMPO 2402/2405 22012KT BKN008 TEMPO 2408/2415 26015KT BECMG 2415/2418 VRB03KT

Waarnemingen en weersverwachtingen van meer dan 4000 vliegvelden (METAR en TAF).

De beschikbare stations zijn de gele en rode punten op de kaart.

Ga met uw muis naar het station om de naam te zien.

Klik dan om waarnemingen en weersverwachtingen te zien.

kaart wijzigen: klik op de groene knoppen met een zwart kruis om in te zoomen, op de groene knop met een streepje om uit te zoomen of op de groene pijlen voor aangrenzende kaarten.


METAR-TAF: